createdAt,value
2019-04-22T00:00:53.868Z,11.43
2019-04-22T00:03:32.319Z,11.30
2019-04-22T00:06:16.567Z,11.18
2019-04-22T00:08:53.245Z,11.14
2019-04-22T00:11:26.061Z,11.33
2019-04-22T00:13:53.865Z,11.08
2019-04-22T00:16:27.803Z,11.12
2019-04-22T00:21:26.278Z,11.18
2019-04-22T00:23:53.025Z,11.06
2019-04-22T00:26:37.539Z,10.91
2019-04-22T00:29:21.387Z,10.95
2019-04-22T00:32:03.443Z,10.92
2019-04-22T00:34:40.882Z,10.95
2019-04-22T00:37:25.209Z,11.04
2019-04-22T00:39:51.779Z,11.03
2019-04-22T00:42:27.466Z,10.92
2019-04-22T00:45:04.921Z,10.91
2019-04-22T00:47:30.604Z,11.02
2019-04-22T00:52:28.119Z,10.92
2019-04-22T00:55:10.103Z,11.02
2019-04-22T00:57:28.076Z,11.08
2019-04-22T01:00:28.889Z,10.75
2019-04-22T01:02:59.275Z,11.06
2019-04-22T01:05:32.686Z,11.07
2019-04-22T01:08:04.225Z,10.85
2019-04-22T01:10:28.709Z,11.04
2019-04-22T01:12:56.946Z,10.79
2019-04-22T01:15:28.896Z,10.82
2019-04-22T01:21:00.989Z,10.89
2019-04-22T01:23:08.126Z,10.74
2019-04-22T01:25:34.823Z,10.82
2019-04-22T01:27:58.274Z,10.91
2019-04-22T01:30:25.836Z,10.76
2019-04-22T01:32:50.264Z,10.77
2019-04-22T01:35:28.929Z,10.69
2019-04-22T01:38:05.562Z,10.63
2019-04-22T01:41:05.329Z,10.62
2019-04-22T01:43:32.837Z,10.37
2019-04-22T01:46:03.959Z,10.53
2019-04-22T01:48:36.095Z,10.55
2019-04-22T01:51:01.706Z,10.56
2019-04-22T01:53:33.757Z,10.54
2019-04-22T01:56:06.015Z,10.51
2019-04-22T01:58:31.187Z,10.43
2019-04-22T02:01:33.229Z,10.47
2019-04-22T02:03:54.702Z,10.43
2019-04-22T02:06:30.562Z,10.31
2019-04-22T02:09:01.995Z,10.27
2019-04-22T02:11:32.138Z,10.14
2019-04-22T02:13:59.181Z,10.07
2019-04-22T02:16:27.588Z,9.90
2019-04-22T02:19:01.826Z,9.94
2019-04-22T02:21:28.687Z,9.61
2019-04-22T02:24:27.809Z,9.74
2019-04-22T02:26:54.621Z,9.66
2019-04-22T02:29:27.290Z,9.12
2019-04-22T02:31:58.989Z,9.01
2019-04-22T02:36:58.194Z,8.80
2019-04-22T02:39:29.287Z,8.98
2019-04-22T02:41:54.824Z,9.10
2019-04-22T02:44:43.252Z,8.98
2019-04-22T02:47:18.522Z,8.77
2019-04-22T02:52:23.858Z,8.55
2019-04-22T02:55:02.989Z,8.41
2019-04-22T02:57:27.986Z,8.33
2019-04-22T02:59:50.248Z,8.36
2019-04-22T03:07:31.747Z,8.50
2019-04-22T03:17:55.176Z,8.67
2019-04-22T03:20:09.183Z,8.46
2019-04-22T03:22:34.465Z,8.37
2019-04-22T03:28:05.699Z,8.52
2019-04-22T03:40:42.835Z,8.17
2019-04-22T03:43:09.199Z,7.93
2019-04-22T03:45:37.899Z,7.97
2019-04-22T03:48:17.697Z,7.97
2019-04-22T03:50:36.958Z,7.80
2019-04-22T03:53:29.154Z,7.81
2019-04-22T03:55:45.065Z,8.04
2019-04-22T03:58:13.965Z,7.67
2019-04-22T04:00:47.614Z,7.56
2019-04-22T04:05:54.134Z,7.68
2019-04-22T04:11:07.867Z,7.47
2019-04-22T04:13:39.493Z,7.52
2019-04-22T04:16:10.735Z,7.61
2019-04-22T04:18:49.850Z,7.68
2019-04-22T04:26:17.045Z,7.44
2019-04-22T04:29:27.943Z,7.63
2019-04-22T04:36:41.758Z,7.67
2019-04-22T04:39:05.071Z,8.00
2019-04-22T04:41:42.049Z,7.99
2019-04-22T04:46:51.765Z,8.35
2019-04-22T04:49:39.214Z,8.18
2019-04-22T04:54:44.524Z,8.52
2019-04-22T04:56:56.019Z,8.82
2019-04-22T05:01:58.318Z,8.79
2019-04-22T05:04:53.295Z,9.29
2019-04-22T05:08:00.328Z,9.37
2019-04-22T05:09:55.041Z,9.33
2019-04-22T05:12:41.800Z,9.32
2019-04-22T05:14:55.026Z,11.72
2019-04-22T05:19:50.286Z,12.35
2019-04-22T05:22:20.776Z,13.72
2019-04-22T05:24:51.926Z,13.11
2019-04-22T05:32:30.986Z,14.23
2019-04-22T05:35:00.229Z,13.60
2019-04-22T05:37:34.111Z,12.97
2019-04-22T05:40:08.782Z,12.93
2019-04-22T05:42:28.480Z,14.24
2019-04-22T05:45:10.259Z,13.30
2019-04-22T05:47:32.285Z,13.86
2019-04-22T05:50:11.567Z,15.67
2019-04-22T05:52:40.415Z,17.05
2019-04-22T05:55:14.384Z,15.50
2019-04-22T05:57:47.166Z,14.69
2019-04-22T06:00:28.034Z,14.22
2019-04-22T06:02:53.554Z,14.69
2019-04-22T06:05:16.906Z,13.04
2019-04-22T06:07:55.405Z,12.87
2019-04-22T06:10:29.294Z,12.58
2019-04-22T06:12:57.790Z,12.37
2019-04-22T06:15:29.037Z,12.06
2019-04-22T06:18:12.386Z,12.15
2019-04-22T06:20:40.342Z,12.32
2019-04-22T06:23:12.853Z,12.40
2019-04-22T06:28:23.536Z,12.57
2019-04-22T06:30:49.074Z,14.63
2019-04-22T06:33:20.267Z,14.63
2019-04-22T06:35:54.159Z,19.48
2019-04-22T06:38:30.476Z,21.04
2019-04-22T06:40:54.277Z,17.76
2019-04-22T06:43:22.442Z,20.40
2019-04-22T06:45:54.185Z,19.04
2019-04-22T06:48:27.946Z,19.32
2019-04-22T06:50:56.913Z,18.39
2019-04-22T06:53:29.730Z,21.08
2019-04-22T06:56:01.695Z,21.81
2019-04-22T06:58:28.881Z,22.05
2019-04-22T07:01:04.362Z,20.95
2019-04-22T07:03:44.181Z,21.11
2019-04-22T07:06:08.969Z,20.09
2019-04-22T07:11:11.003Z,18.83
2019-04-22T07:16:13.420Z,20.28
2019-04-22T07:18:45.056Z,22.01
2019-04-22T07:21:16.234Z,22.63
2019-04-22T07:23:55.549Z,20.75
2019-04-22T07:26:18.919Z,18.48
2019-04-22T07:28:51.534Z,20.09
2019-04-22T07:31:20.580Z,16.86
2019-04-22T07:33:56.899Z,17.53
2019-04-22T07:38:56.554Z,18.87
2019-04-22T07:41:29.065Z,18.84
2019-04-22T07:44:13.078Z,17.85
2019-04-22T07:47:15.248Z,17.13
2019-04-22T07:49:43.363Z,17.36
2019-04-22T07:52:15.972Z,17.93
2019-04-22T07:54:50.916Z,18.38
2019-04-22T07:57:26.277Z,17.88
2019-04-22T07:59:57.198Z,17.63
2019-04-22T08:02:25.528Z,18.15
2019-04-22T08:07:34.446Z,17.89
2019-04-22T08:10:18.894Z,17.63
2019-04-22T08:12:45.694Z,18.06
2019-04-22T08:15:12.864Z,18.06
2019-04-22T08:23:20.498Z,18.19
2019-04-22T08:25:46.155Z,18.73
2019-04-22T08:28:17.792Z,18.37
2019-04-22T08:31:01.944Z,18.67
2019-04-22T08:34:12.090Z,18.48
2019-04-22T08:36:40.569Z,19.10
2019-04-22T08:41:31.906Z,19.46
2019-04-22T08:46:35.156Z,19.20
2019-04-22T08:49:00.738Z,18.81
2019-04-22T08:51:30.788Z,19.00
2019-04-22T08:59:10.965Z,19.86
2019-04-22T09:01:35.875Z,19.31
2019-04-22T09:04:05.759Z,19.54
2019-04-22T09:07:02.416Z,18.65
2019-04-22T09:09:24.987Z,19.59
2019-04-22T09:14:26.062Z,19.53
2019-04-22T09:16:48.674Z,19.80
2019-04-22T09:19:23.834Z,18.87
2019-04-22T09:24:45.940Z,19.33
2019-04-22T09:27:22.864Z,19.60
2019-04-22T09:29:54.016Z,20.15
2019-04-22T09:32:31.717Z,19.79
2019-04-22T09:34:51.339Z,19.65
2019-04-22T09:40:04.575Z,20.03
2019-04-22T09:42:37.143Z,19.72
2019-04-22T09:44:59.210Z,20.40
2019-04-22T09:47:36.067Z,20.30
2019-04-22T09:52:42.112Z,20.10
2019-04-22T10:00:08.852Z,20.26
2019-04-22T10:02:41.047Z,20.15
2019-04-22T10:05:15.092Z,19.60
2019-04-22T10:07:42.644Z,20.32
2019-04-22T10:10:26.861Z,20.81
2019-04-22T10:12:54.057Z,20.38
2019-04-22T10:15:39.682Z,20.03
2019-04-22T10:18:12.806Z,20.47
2019-04-22T10:20:38.094Z,21.04
2019-04-22T10:23:12.841Z,21.13
2019-04-22T10:25:45.488Z,21.28
2019-04-22T10:28:21.133Z,21.15
2019-04-22T10:37:00.900Z,20.14
2019-04-22T10:39:37.862Z,20.81
2019-04-22T11:48:09.285Z,21.74
2019-04-22T11:50:40.013Z,22.19
2019-04-22T11:53:09.281Z,21.54
2019-04-22T11:55:38.834Z,21.98
2019-04-22T11:58:08.737Z,22.24
2019-04-22T12:00:39.331Z,22.08
2019-04-22T12:03:09.304Z,21.71
2019-04-22T12:05:39.786Z,21.69
2019-04-22T12:08:09.404Z,21.46
2019-04-22T12:10:46.901Z,22.09
2019-04-22T12:13:10.401Z,22.42
2019-04-22T12:15:40.830Z,21.43
2019-04-22T12:18:11.174Z,22.13
2019-04-22T12:20:41.426Z,22.39
2019-04-22T12:23:12.721Z,22.28
2019-04-22T12:25:50.380Z,22.07
2019-04-22T12:28:13.188Z,22.08
2019-04-22T12:30:43.690Z,21.82
2019-04-22T12:33:14.923Z,22.30
2019-04-22T12:35:44.429Z,21.11
2019-04-22T12:38:15.230Z,21.82
2019-04-22T12:40:53.133Z,21.75
2019-04-22T12:43:20.207Z,21.86
2019-04-22T12:45:49.909Z,21.74
2019-04-22T12:48:21.166Z,22.34
2019-04-22T12:50:54.247Z,21.64
2019-04-22T12:53:25.714Z,21.89
2019-04-22T12:55:57.330Z,22.03
2019-04-22T12:58:33.859Z,22.15
2019-04-22T13:01:17.015Z,22.59
2019-04-22T13:03:46.978Z,22.72
2019-04-22T13:06:17.536Z,21.73
2019-04-22T13:08:47.676Z,21.79
2019-04-22T13:11:21.344Z,21.63
2019-04-22T13:13:49.366Z,22.33
2019-04-22T13:16:20.720Z,22.39
2019-04-22T13:18:56.534Z,22.28
2019-04-22T13:21:22.569Z,22.11
2019-04-22T13:23:53.122Z,22.60
2019-04-22T13:26:23.157Z,22.69
2019-04-22T13:28:52.744Z,22.36
2019-04-22T13:31:22.796Z,22.60
2019-04-22T13:33:54.954Z,22.37
2019-04-22T13:36:25.554Z,22.43
2019-04-22T13:38:55.215Z,21.85
2019-04-22T13:41:35.453Z,21.77
2019-04-22T13:43:56.155Z,21.96
2019-04-22T13:46:30.942Z,22.10
2019-04-22T13:49:23.973Z,21.97
2019-04-22T13:57:04.892Z,22.21
2019-04-22T13:59:11.522Z,21.27
2019-04-22T14:01:42.958Z,22.00
2019-04-22T14:04:18.555Z,21.63
2019-04-22T14:06:49.095Z,21.75
2019-04-22T14:09:20.328Z,22.13
2019-04-22T14:11:56.703Z,21.61
2019-04-22T14:14:22.128Z,21.53
2019-04-22T14:16:51.086Z,21.62
2019-04-22T14:19:23.652Z,21.71
2019-04-22T14:21:53.895Z,21.98
2019-04-22T14:24:23.781Z,21.78
2019-04-22T14:27:07.198Z,21.64
2019-04-22T14:29:23.966Z,21.85
2019-04-22T14:32:02.831Z,21.25
2019-04-22T14:34:24.274Z,21.29
2019-04-22T14:36:55.307Z,21.51
2019-04-22T14:39:26.026Z,21.64
2019-04-22T14:42:15.767Z,21.78
2019-04-22T14:47:19.623Z,21.66
2019-04-22T14:49:48.088Z,21.65
2019-04-22T14:52:22.774Z,21.17
2019-04-22T14:54:43.482Z,21.15
2019-04-22T14:57:01.317Z,21.53
2019-04-22T14:59:32.569Z,21.06
2019-04-22T15:02:01.891Z,21.07
2019-04-22T15:04:31.159Z,21.19
2019-04-22T15:07:01.164Z,21.55
2019-04-22T15:09:32.112Z,21.68
2019-04-22T15:12:12.057Z,21.05
2019-04-22T15:14:33.147Z,21.08
2019-04-22T15:17:20.708Z,21.93
2019-04-22T15:20:17.221Z,21.09
2019-04-22T15:22:46.533Z,21.71
2019-04-22T15:25:16.709Z,21.15
2019-04-22T15:27:45.988Z,21.75
2019-04-22T15:30:15.209Z,20.95
2019-04-22T15:32:45.537Z,20.93
2019-04-22T15:35:15.521Z,21.42
2019-04-22T15:37:45.683Z,20.81
2019-04-22T15:40:16.427Z,21.45
2019-04-22T15:42:46.970Z,21.80
2019-04-22T15:45:18.801Z,21.06
2019-04-22T15:47:48.276Z,21.22
2019-04-22T15:50:18.994Z,21.36
2019-04-22T15:52:51.961Z,20.77
2019-04-22T15:55:20.599Z,21.02
2019-04-22T15:57:49.852Z,21.06
2019-04-22T16:00:34.715Z,21.22
2019-04-22T16:02:50.036Z,20.56
2019-04-22T16:05:20.747Z,20.80
2019-04-22T16:07:50.727Z,21.09
2019-04-22T16:10:22.017Z,20.70
2019-04-22T16:12:57.493Z,20.63
2019-04-22T16:15:22.508Z,20.75
2019-04-22T16:17:52.947Z,20.78
2019-04-22T16:20:23.312Z,20.83
2019-04-22T16:23:20.237Z,20.21
2019-04-22T16:26:09.639Z,20.42
2019-04-22T16:28:39.707Z,20.58
2019-04-22T16:31:09.571Z,20.75
2019-04-22T16:33:41.683Z,20.49
2019-04-22T16:36:11.045Z,20.38
2019-04-22T16:38:40.799Z,20.25
2019-04-22T16:41:10.894Z,20.23
2019-04-22T16:43:40.743Z,20.36
2019-04-22T16:46:09.906Z,20.16
2019-04-22T16:48:39.971Z,19.89
2019-04-22T16:51:11.882Z,19.92
2019-04-22T16:53:45.227Z,19.87
2019-04-22T16:56:15.377Z,19.55
2019-04-22T16:58:54.707Z,19.64
2019-04-22T17:04:55.777Z,19.59
2019-04-22T17:07:26.544Z,19.43
2019-04-22T17:10:15.594Z,19.35
2019-04-22T17:12:54.299Z,19.37
2019-04-22T17:15:24.081Z,19.31
2019-04-22T17:17:54.931Z,19.32
2019-04-22T17:20:25.135Z,19.01
2019-04-22T17:22:55.974Z,18.90
2019-04-22T17:25:26.580Z,19.00
2019-04-22T17:27:57.377Z,18.85
2019-04-22T17:30:29.127Z,18.67
2019-04-22T17:33:00.905Z,18.55
2019-04-22T17:35:31.608Z,18.44
2019-04-22T17:38:10.154Z,18.47
2019-04-22T17:40:51.216Z,18.42
2019-04-22T17:43:36.209Z,18.49
2019-04-22T17:46:07.176Z,18.18
2019-04-22T17:48:53.342Z,18.09
2019-04-22T17:51:29.838Z,18.04
2019-04-22T17:53:57.982Z,17.93
2019-04-22T17:56:27.578Z,17.92
2019-04-22T17:58:57.076Z,17.75
2019-04-22T18:01:29.947Z,17.80
2019-04-22T18:03:48.568Z,17.64
2019-04-22T18:06:39.177Z,17.48
2019-04-22T18:09:01.797Z,17.44
2019-04-22T18:11:44.606Z,17.36
2019-04-22T18:14:26.076Z,17.34
2019-04-22T18:16:41.468Z,17.34
2019-04-22T18:19:13.952Z,17.06
2019-04-22T18:21:35.026Z,17.16
2019-04-22T18:24:04.890Z,16.98
2019-04-22T18:26:47.957Z,16.92
2019-04-22T18:29:17.438Z,16.96
2019-04-22T18:31:45.087Z,16.81
2019-04-22T18:34:16.976Z,16.92
2019-04-22T18:36:54.123Z,16.70
2019-04-22T18:39:36.346Z,16.53
2019-04-22T18:41:58.638Z,16.56
2019-04-22T18:44:34.768Z,16.56
2019-04-22T18:47:00.996Z,16.41
2019-04-22T18:49:40.605Z,16.41
2019-04-22T18:52:24.606Z,16.46
2019-04-22T18:55:14.277Z,16.35
2019-04-22T18:58:01.031Z,16.19
2019-04-22T19:00:18.113Z,16.21
2019-04-22T19:02:55.862Z,16.18
2019-04-22T19:05:42.680Z,15.97
2019-04-22T19:08:24.135Z,15.93
2019-04-22T19:10:57.605Z,15.89
2019-04-22T19:16:01.744Z,15.79
2019-04-22T19:18:31.901Z,15.87
2019-04-22T19:21:01.267Z,15.76
2019-04-22T19:23:29.039Z,15.65
2019-04-22T19:25:58.642Z,15.57
2019-04-22T19:28:46.475Z,15.51
2019-04-22T19:31:09.367Z,15.36
2019-04-22T19:34:03.308Z,15.43
2019-04-22T19:36:32.249Z,15.33
2019-04-22T19:38:59.256Z,15.42
2019-04-22T19:41:38.911Z,15.40
2019-04-22T19:44:10.325Z,15.32
2019-04-22T19:46:42.425Z,15.35
2019-04-22T19:49:21.980Z,15.39
2019-04-22T19:51:55.878Z,15.27
2019-04-22T19:54:15.348Z,15.26
2019-04-22T19:56:38.350Z,15.16
2019-04-22T19:59:17.519Z,15.16
2019-04-22T20:02:04.324Z,15.28
2019-04-22T20:04:52.930Z,15.17
2019-04-22T20:07:15.458Z,15.25
2019-04-22T20:09:55.618Z,15.29
2019-04-22T20:12:21.725Z,15.06
2019-04-22T20:14:49.601Z,15.21
2019-04-22T20:17:28.598Z,15.10
2019-04-22T20:20:17.560Z,14.94
2019-04-22T20:22:26.712Z,15.06
2019-04-22T20:24:47.173Z,14.96
2019-04-22T20:27:30.412Z,14.90
2019-04-22T20:30:04.933Z,14.83
2019-04-22T20:32:34.500Z,14.74
2019-04-22T20:35:12.589Z,14.70
2019-04-22T20:40:10.295Z,14.57
2019-04-22T20:42:48.409Z,14.56
2019-04-22T20:45:14.949Z,14.62
2019-04-22T20:47:40.445Z,14.57
2019-04-22T20:50:21.786Z,14.43
2019-04-22T20:52:53.991Z,14.46
2019-04-22T20:55:17.654Z,14.39
2019-04-22T20:57:53.074Z,14.31
2019-04-22T21:00:20.172Z,14.30
2019-04-22T21:02:50.532Z,14.14
2019-04-22T21:05:23.361Z,14.19
2019-04-22T21:08:08.049Z,14.22
2019-04-22T21:10:28.730Z,14.18
2019-04-22T21:13:01.276Z,14.07
2019-04-22T21:15:40.778Z,13.97
2019-04-22T21:18:08.349Z,13.85
2019-04-22T21:20:48.049Z,13.93
2019-04-22T21:23:13.904Z,13.98
2019-04-22T21:25:32.670Z,13.83
2019-04-22T21:28:17.527Z,13.76
2019-04-22T21:30:43.378Z,13.76
2019-04-22T21:33:11.887Z,13.64
2019-04-22T21:36:16.821Z,13.66
2019-04-22T21:38:29.243Z,13.74
2019-04-22T21:40:54.769Z,13.66
2019-04-22T21:43:30.524Z,13.66
2019-04-22T21:46:01.294Z,13.65
2019-04-22T21:48:36.672Z,13.59
2019-04-22T21:51:04.823Z,13.57
2019-04-22T21:53:48.847Z,13.36
2019-04-22T21:56:29.334Z,13.31
2019-04-22T21:59:01.608Z,13.42
2019-04-22T22:01:52.762Z,13.26
2019-04-22T22:04:20.691Z,13.23
2019-04-22T22:06:42.585Z,13.13
2019-04-22T22:09:25.080Z,13.14
2019-04-22T22:11:59.756Z,13.19
2019-04-22T22:14:29.005Z,13.09
2019-04-22T22:16:54.678Z,13.11
2019-04-22T22:19:34.104Z,12.93
2019-04-22T22:22:16.291Z,13.05
2019-04-22T22:24:41.372Z,12.95
2019-04-22T22:27:10.370Z,13.01
2019-04-22T22:29:59.913Z,12.98
2019-04-22T22:32:27.516Z,13.00
2019-04-22T22:34:57.317Z,12.91
2019-04-22T22:37:13.368Z,12.97
2019-04-22T22:39:44.866Z,12.93
2019-04-22T22:42:10.872Z,12.88
2019-04-22T22:44:47.997Z,12.98
2019-04-22T22:47:32.975Z,13.02
2019-04-22T22:50:03.270Z,13.01
2019-04-22T22:52:51.814Z,12.91
2019-04-22T22:55:12.055Z,12.86
2019-04-22T22:57:38.313Z,13.01
2019-04-22T23:12:04.822Z,12.84
2019-04-22T23:14:34.397Z,12.89
2019-04-22T23:16:47.423Z,12.96
2019-04-22T23:19:11.122Z,12.91
2019-04-22T23:21:45.906Z,12.96
2019-04-22T23:24:44.016Z,12.94
2019-04-22T23:27:21.097Z,12.93
2019-04-22T23:30:02.562Z,12.83
2019-04-22T23:32:35.780Z,12.89
2019-04-22T23:35:22.698Z,12.88
2019-04-22T23:38:07.446Z,12.90
2019-04-22T23:40:37.096Z,12.81
2019-04-22T23:43:07.131Z,12.81
2019-04-22T23:45:41.669Z,12.83
2019-04-22T23:48:09.818Z,12.84
2019-04-22T23:50:48.020Z,12.74
2019-04-22T23:53:55.481Z,12.73
2019-04-22T23:56:17.497Z,12.84
2019-04-22T23:58:50.511Z,12.71
